sensor_id;sensor_type;location;lat;lon;timestamp;P1;durP1;ratioP1;P2;durP2;ratioP2
46086;SDS011;31824;49.648;8.640;2024-02-21T00:00:30;13.57;;;2.47;;
46086;SDS011;31824;49.648;8.640;2024-02-21T00:03:32;12.82;;;2.88;;
46086;SDS011;31824;49.648;8.640;2024-02-21T00:06:34;9.43;;;1.90;;
46086;SDS011;31824;49.648;8.640;2024-02-21T00:09:37;4.88;;;1.90;;
46086;SDS011;31824;49.648;8.640;2024-02-21T00:12:44;9.88;;;2.35;;
46086;SDS011;31824;49.648;8.640;2024-02-21T00:15:46;9.48;;;2.55;;
46086;SDS011;31824;49.648;8.640;2024-02-21T00:18:48;8.55;;;2.05;;
46086;SDS011;31824;49.648;8.640;2024-02-21T00:21:50;11.27;;;2.35;;
46086;SDS011;31824;49.648;8.640;2024-02-21T00:24:52;4.60;;;1.90;;
46086;SDS011;31824;49.648;8.640;2024-02-21T00:27:55;9.82;;;2.42;;
46086;SDS011;31824;49.648;8.640;2024-02-21T00:30:57;12.38;;;2.80;;
46086;SDS011;31824;49.648;8.640;2024-02-21T00:33:59;7.00;;;2.28;;
46086;SDS011;31824;49.648;8.640;2024-02-21T00:37:01;7.57;;;2.00;;
46086;SDS011;31824;49.648;8.640;2024-02-21T00:40:04;6.60;;;2.42;;
46086;SDS011;31824;49.648;8.640;2024-02-21T00:43:11;7.72;;;2.22;;
46086;SDS011;31824;49.648;8.640;2024-02-21T00:46:13;6.97;;;1.73;;
46086;SDS011;31824;49.648;8.640;2024-02-21T00:49:15;9.45;;;2.60;;
46086;SDS011;31824;49.648;8.640;2024-02-21T00:52:17;11.95;;;2.70;;
46086;SDS011;31824;49.648;8.640;2024-02-21T00:55:19;5.32;;;1.88;;
46086;SDS011;31824;49.648;8.640;2024-02-21T00:58:22;11.20;;;2.20;;
46086;SDS011;31824;49.648;8.640;2024-02-21T01:01:25;7.65;;;2.38;;
46086;SDS011;31824;49.648;8.640;2024-02-21T01:04:27;6.47;;;2.17;;
46086;SDS011;31824;49.648;8.640;2024-02-21T01:07:29;8.95;;;2.05;;
46086;SDS011;31824;49.648;8.640;2024-02-21T01:10:31;7.82;;;2.25;;
46086;SDS011;31824;49.648;8.640;2024-02-21T01:13:35;9.35;;;2.40;;
46086;SDS011;31824;49.648;8.640;2024-02-21T01:16:37;9.05;;;2.22;;
46086;SDS011;31824;49.648;8.640;2024-02-21T01:19:39;8.98;;;1.90;;
46086;SDS011;31824;49.648;8.640;2024-02-21T01:22:43;5.90;;;1.80;;
46086;SDS011;31824;49.648;8.640;2024-02-21T01:25:45;10.05;;;2.00;;
46086;SDS011;31824;49.648;8.640;2024-02-21T01:28:48;8.82;;;2.17;;
46086;SDS011;31824;49.648;8.640;2024-02-21T01:31:50;11.10;;;2.33;;
46086;SDS011;31824;49.648;8.640;2024-02-21T01:34:52;15.57;;;2.63;;
46086;SDS011;31824;49.648;8.640;2024-02-21T01:37:54;7.35;;;2.03;;
46086;SDS011;31824;49.648;8.640;2024-02-21T01:40:56;11.55;;;1.60;;
46086;SDS011;31824;49.648;8.640;2024-02-21T01:43:59;7.63;;;1.77;;
46086;SDS011;31824;49.648;8.640;2024-02-21T01:47:01;6.22;;;2.13;;
46086;SDS011;31824;49.648;8.640;2024-02-21T01:50:04;5.38;;;1.70;;
46086;SDS011;31824;49.648;8.640;2024-02-21T01:53:06;7.82;;;1.90;;
46086;SDS011;31824;49.648;8.640;2024-02-21T01:56:09;5.45;;;1.35;;
46086;SDS011;31824;49.648;8.640;2024-02-21T01:59:13;11.27;;;2.42;;
46086;SDS011;31824;49.648;8.640;2024-02-21T02:02:18;6.47;;;1.95;;
46086;SDS011;31824;49.648;8.640;2024-02-21T02:05:20;8.90;;;1.73;;
46086;SDS011;31824;49.648;8.640;2024-02-21T02:08:22;5.03;;;1.70;;
46086;SDS011;31824;49.648;8.640;2024-02-21T02:11:25;8.23;;;1.77;;
46086;SDS011;31824;49.648;8.640;2024-02-21T02:14:28;7.25;;;1.65;;
46086;SDS011;31824;49.648;8.640;2024-02-21T02:17:30;9.30;;;1.77;;
46086;SDS011;31824;49.648;8.640;2024-02-21T02:20:32;8.80;;;1.98;;
46086;SDS011;31824;49.648;8.640;2024-02-21T02:23:36;4.50;;;1.65;;
46086;SDS011;31824;49.648;8.640;2024-02-21T02:26:37;6.07;;;1.80;;
46086;SDS011;31824;49.648;8.640;2024-02-21T02:29:42;8.75;;;2.13;;
46086;SDS011;31824;49.648;8.640;2024-02-21T02:32:44;9.90;;;1.70;;
46086;SDS011;31824;49.648;8.640;2024-02-21T02:35:46;6.22;;;1.52;;
46086;SDS011;31824;49.648;8.640;2024-02-21T02:38:51;9.32;;;2.28;;
46086;SDS011;31824;49.648;8.640;2024-02-21T02:41:52;8.35;;;2.05;;
46086;SDS011;31824;49.648;8.640;2024-02-21T02:44:54;8.13;;;1.73;;
46086;SDS011;31824;49.648;8.640;2024-02-21T02:47:58;7.80;;;1.30;;
46086;SDS011;31824;49.648;8.640;2024-02-21T02:51:01;8.95;;;1.88;;
46086;SDS011;31824;49.648;8.640;2024-02-21T02:54:05;10.90;;;2.13;;
46086;SDS011;31824;49.648;8.640;2024-02-21T02:57:07;5.57;;;1.63;;
46086;SDS011;31824;49.648;8.640;2024-02-21T03:00:10;6.63;;;1.48;;
46086;SDS011;31824;49.648;8.640;2024-02-21T03:03:13;4.95;;;1.90;;
46086;SDS011;31824;49.648;8.640;2024-02-21T03:06:15;6.30;;;1.70;;
46086;SDS011;31824;49.648;8.640;2024-02-21T03:09:18;8.57;;;2.00;;
46086;SDS011;31824;49.648;8.640;2024-02-21T03:12:23;4.72;;;1.58;;
46086;SDS011;31824;49.648;8.640;2024-02-21T03:15:30;8.10;;;1.85;;
46086;SDS011;31824;49.648;8.640;2024-02-21T03:18:32;2.33;;;1.08;;
46086;SDS011;31824;49.648;8.640;2024-02-21T03:21:34;6.45;;;1.60;;
46086;SDS011;31824;49.648;8.640;2024-02-21T03:24:37;3.85;;;0.55;;
46086;SDS011;31824;49.648;8.640;2024-02-21T03:27:39;4.97;;;1.67;;
46086;SDS011;31824;49.648;8.640;2024-02-21T03:30:41;9.35;;;2.33;;
46086;SDS011;31824;49.648;8.640;2024-02-21T03:33:43;10.55;;;2.22;;
46086;SDS011;31824;49.648;8.640;2024-02-21T03:36:45;6.97;;;1.70;;
46086;SDS011;31824;49.648;8.640;2024-02-21T03:39:48;5.30;;;1.90;;
46086;SDS011;31824;49.648;8.640;2024-02-21T03:42:50;5.47;;;1.77;;
46086;SDS011;31824;49.648;8.640;2024-02-21T03:45:52;7.88;;;1.60;;
46086;SDS011;31824;49.648;8.640;2024-02-21T03:48:54;7.00;;;1.88;;
46086;SDS011;31824;49.648;8.640;2024-02-21T03:51:56;4.45;;;1.50;;
46086;SDS011;31824;49.648;8.640;2024-02-21T03:54:59;4.85;;;1.58;;
46086;SDS011;31824;49.648;8.640;2024-02-21T03:58:01;6.53;;;1.92;;
46086;SDS011;31824;49.648;8.640;2024-02-21T04:01:04;4.28;;;1.42;;
46086;SDS011;31824;49.648;8.640;2024-02-21T04:04:05;7.75;;;1.58;;
46086;SDS011;31824;49.648;8.640;2024-02-21T04:07:08;4.80;;;1.63;;
46086;SDS011;31824;49.648;8.640;2024-02-21T04:10:13;7.22;;;1.48;;
46086;SDS011;31824;49.648;8.640;2024-02-21T04:13:15;4.97;;;1.27;;
46086;SDS011;31824;49.648;8.640;2024-02-21T04:16:17;6.00;;;1.63;;
46086;SDS011;31824;49.648;8.640;2024-02-21T04:19:19;3.80;;;1.25;;
46086;SDS011;31824;49.648;8.640;2024-02-21T04:22:21;4.35;;;1.30;;
46086;SDS011;31824;49.648;8.640;2024-02-21T04:25:24;4.07;;;1.45;;
46086;SDS011;31824;49.648;8.640;2024-02-21T04:28:26;2.08;;;0.80;;
46086;SDS011;31824;49.648;8.640;2024-02-21T04:31:28;3.60;;;1.50;;
46086;SDS011;31824;49.648;8.640;2024-02-21T04:34:30;4.20;;;1.38;;
46086;SDS011;31824;49.648;8.640;2024-02-21T04:37:32;10.23;;;1.55;;
46086;SDS011;31824;49.648;8.640;2024-02-21T04:40:35;8.65;;;1.73;;
46086;SDS011;31824;49.648;8.640;2024-02-21T04:43:37;6.03;;;1.52;;
46086;SDS011;31824;49.648;8.640;2024-02-21T04:46:41;4.60;;;1.33;;
46086;SDS011;31824;49.648;8.640;2024-02-21T04:49:43;6.03;;;1.70;;
46086;SDS011;31824;49.648;8.640;2024-02-21T04:52:45;3.33;;;1.40;;
46086;SDS011;31824;49.648;8.640;2024-02-21T04:55:49;4.88;;;1.67;;
46086;SDS011;31824;49.648;8.640;2024-02-21T04:58:51;6.82;;;1.65;;
46086;SDS011;31824;49.648;8.640;2024-02-21T05:01:53;5.45;;;1.40;;
46086;SDS011;31824;49.648;8.640;2024-02-21T05:04:55;6.00;;;1.50;;
46086;SDS011;31824;49.648;8.640;2024-02-21T05:07:58;3.03;;;1.40;;
46086;SDS011;31824;49.648;8.640;2024-02-21T05:11:01;7.60;;;1.85;;
46086;SDS011;31824;49.648;8.640;2024-02-21T05:14:04;10.55;;;2.30;;
46086;SDS011;31824;49.648;8.640;2024-02-21T05:17:06;7.05;;;1.83;;
46086;SDS011;31824;49.648;8.640;2024-02-21T05:20:09;10.18;;;1.63;;
46086;SDS011;31824;49.648;8.640;2024-02-21T05:23:11;6.45;;;1.65;;
46086;SDS011;31824;49.648;8.640;2024-02-21T05:26:20;4.45;;;1.52;;
46086;SDS011;31824;49.648;8.640;2024-02-21T05:29:23;6.03;;;1.73;;
46086;SDS011;31824;49.648;8.640;2024-02-21T05:32:25;5.88;;;1.63;;
46086;SDS011;31824;49.648;8.640;2024-02-21T05:35:28;9.73;;;1.83;;
46086;SDS011;31824;49.648;8.640;2024-02-21T05:38:31;6.30;;;1.70;;
46086;SDS011;31824;49.648;8.640;2024-02-21T05:41:34;5.38;;;1.73;;
46086;SDS011;31824;49.648;8.640;2024-02-21T05:44:35;5.75;;;1.58;;
46086;SDS011;31824;49.648;8.640;2024-02-21T05:47:40;4.45;;;1.63;;
46086;SDS011;31824;49.648;8.640;2024-02-21T05:50:43;3.03;;;1.40;;
46086;SDS011;31824;49.648;8.640;2024-02-21T05:53:44;3.35;;;1.25;;
46086;SDS011;31824;49.648;8.640;2024-02-21T05:56:48;7.28;;;1.75;;
46086;SDS011;31824;49.648;8.640;2024-02-21T05:59:49;5.20;;;1.75;;
46086;SDS011;31824;49.648;8.640;2024-02-21T06:02:51;9.20;;;1.88;;
46086;SDS011;31824;49.648;8.640;2024-02-21T06:05:53;7.72;;;1.75;;
46086;SDS011;31824;49.648;8.640;2024-02-21T06:08:55;3.83;;;1.38;;
46086;SDS011;31824;49.648;8.640;2024-02-21T06:11:59;7.72;;;2.03;;
46086;SDS011;31824;49.648;8.640;2024-02-21T06:15:00;8.45;;;1.65;;
46086;SDS011;31824;49.648;8.640;2024-02-21T06:18:03;7.80;;;2.15;;
46086;SDS011;31824;49.648;8.640;2024-02-21T06:21:05;6.95;;;1.73;;
46086;SDS011;31824;49.648;8.640;2024-02-21T06:24:07;4.70;;;1.75;;
46086;SDS011;31824;49.648;8.640;2024-02-21T06:27:10;7.43;;;2.20;;
46086;SDS011;31824;49.648;8.640;2024-02-21T06:30:13;6.78;;;1.75;;
46086;SDS011;31824;49.648;8.640;2024-02-21T06:33:15;3.75;;;1.20;;
46086;SDS011;31824;49.648;8.640;2024-02-21T06:36:17;4.90;;;1.55;;
46086;SDS011;31824;49.648;8.640;2024-02-21T06:39:20;6.70;;;1.88;;
46086;SDS011;31824;49.648;8.640;2024-02-21T06:42:25;6.25;;;2.63;;
46086;SDS011;31824;49.648;8.640;2024-02-21T06:45:27;6.15;;;1.92;;
46086;SDS011;31824;49.648;8.640;2024-02-21T06:48:29;7.68;;;1.85;;
46086;SDS011;31824;49.648;8.640;2024-02-21T06:51:31;6.70;;;1.77;;
46086;SDS011;31824;49.648;8.640;2024-02-21T06:54:33;7.20;;;2.03;;
46086;SDS011;31824;49.648;8.640;2024-02-21T06:57:36;6.65;;;2.33;;
46086;SDS011;31824;49.648;8.640;2024-02-21T07:00:38;10.70;;;2.47;;
46086;SDS011;31824;49.648;8.640;2024-02-21T07:03:40;10.00;;;2.78;;
46086;SDS011;31824;49.648;8.640;2024-02-21T07:06:42;6.25;;;1.73;;
46086;SDS011;31824;49.648;8.640;2024-02-21T07:09:44;7.78;;;2.42;;
46086;SDS011;31824;49.648;8.640;2024-02-21T07:15:54;4.50;;;1.48;;
46086;SDS011;31824;49.648;8.640;2024-02-21T07:18:56;10.48;;;1.92;;
46086;SDS011;31824;49.648;8.640;2024-02-21T07:21:58;6.63;;;2.13;;
46086;SDS011;31824;49.648;8.640;2024-02-21T07:24:59;10.45;;;2.55;;
46086;SDS011;31824;49.648;8.640;2024-02-21T07:28:06;9.57;;;2.10;;
46086;SDS011;31824;49.648;8.640;2024-02-21T07:31:08;6.43;;;1.70;;
46086;SDS011;31824;49.648;8.640;2024-02-21T07:34:10;8.40;;;2.53;;
46086;SDS011;31824;49.648;8.640;2024-02-21T07:37:12;7.25;;;1.95;;
46086;SDS011;31824;49.648;8.640;2024-02-21T07:40:14;6.72;;;1.65;;
46086;SDS011;31824;49.648;8.640;2024-02-21T07:43:19;10.30;;;2.67;;
46086;SDS011;31824;49.648;8.640;2024-02-21T07:46:23;6.72;;;1.75;;
46086;SDS011;31824;49.648;8.640;2024-02-21T07:49:26;5.22;;;1.45;;
46086;SDS011;31824;49.648;8.640;2024-02-21T07:52:28;3.08;;;1.30;;
46086;SDS011;31824;49.648;8.640;2024-02-21T07:55:29;8.55;;;1.80;;
46086;SDS011;31824;49.648;8.640;2024-02-21T07:58:33;5.32;;;1.58;;
46086;SDS011;31824;49.648;8.640;2024-02-21T08:01:35;6.03;;;1.40;;
46086;SDS011;31824;49.648;8.640;2024-02-21T08:04:37;5.50;;;1.77;;
46086;SDS011;31824;49.648;8.640;2024-02-21T08:07:39;11.73;;;2.10;;
46086;SDS011;31824;49.648;8.640;2024-02-21T08:10:41;7.95;;;2.33;;
46086;SDS011;31824;49.648;8.640;2024-02-21T08:13:44;2.97;;;1.30;;
46086;SDS011;31824;49.648;8.640;2024-02-21T08:16:46;6.35;;;1.73;;
46086;SDS011;31824;49.648;8.640;2024-02-21T08:19:48;3.47;;;1.30;;
46086;SDS011;31824;49.648;8.640;2024-02-21T08:22:51;4.57;;;1.60;;
46086;SDS011;31824;49.648;8.640;2024-02-21T08:25:53;7.22;;;1.92;;
46086;SDS011;31824;49.648;8.640;2024-02-21T08:28:57;7.80;;;1.80;;
46086;SDS011;31824;49.648;8.640;2024-02-21T08:32:02;6.07;;;1.80;;
46086;SDS011;31824;49.648;8.640;2024-02-21T08:35:05;3.70;;;1.58;;
46086;SDS011;31824;49.648;8.640;2024-02-21T08:38:07;3.78;;;1.38;;
46086;SDS011;31824;49.648;8.640;2024-02-21T08:41:09;7.15;;;1.70;;
46086;SDS011;31824;49.648;8.640;2024-02-21T08:44:13;4.65;;;1.60;;
46086;SDS011;31824;49.648;8.640;2024-02-21T08:47:15;11.25;;;1.88;;
46086;SDS011;31824;49.648;8.640;2024-02-21T08:50:16;6.28;;;1.20;;
46086;SDS011;31824;49.648;8.640;2024-02-21T08:53:28;5.03;;;1.33;;
46086;SDS011;31824;49.648;8.640;2024-02-21T08:56:30;4.63;;;1.55;;
46086;SDS011;31824;49.648;8.640;2024-02-21T08:59:34;5.88;;;1.83;;
46086;SDS011;31824;49.648;8.640;2024-02-21T09:02:36;9.35;;;1.92;;
46086;SDS011;31824;49.648;8.640;2024-02-21T09:05:39;7.80;;;2.13;;
46086;SDS011;31824;49.648;8.640;2024-02-21T09:08:41;7.82;;;2.25;;
46086;SDS011;31824;49.648;8.640;2024-02-21T09:11:43;3.72;;;1.50;;
46086;SDS011;31824;49.648;8.640;2024-02-21T09:14:47;4.00;;;1.00;;
46086;SDS011;31824;49.648;8.640;2024-02-21T09:17:52;7.63;;;1.55;;
46086;SDS011;31824;49.648;8.640;2024-02-21T09:20:54;2.58;;;0.93;;
46086;SDS011;31824;49.648;8.640;2024-02-21T09:23:55;7.10;;;1.33;;
46086;SDS011;31824;49.648;8.640;2024-02-21T09:27:01;5.80;;;1.38;;
46086;SDS011;31824;49.648;8.640;2024-02-21T09:30:05;4.20;;;1.40;;
46086;SDS011;31824;49.648;8.640;2024-02-21T09:33:08;1.98;;;0.63;;
46086;SDS011;31824;49.648;8.640;2024-02-21T09:36:12;4.72;;;1.38;;
46086;SDS011;31824;49.648;8.640;2024-02-21T09:39:14;8.73;;;1.60;;
46086;SDS011;31824;49.648;8.640;2024-02-21T09:42:20;6.82;;;1.45;;
46086;SDS011;31824;49.648;8.640;2024-02-21T09:45:24;1.70;;;0.80;;
46086;SDS011;31824;49.648;8.640;2024-02-21T09:48:30;5.72;;;1.73;;
46086;SDS011;31824;49.648;8.640;2024-02-21T09:51:38;5.18;;;1.73;;
46086;SDS011;31824;49.648;8.640;2024-02-21T09:54:42;3.88;;;1.20;;
46086;SDS011;31824;49.648;8.640;2024-02-21T09:57:46;4.40;;;1.20;;
46086;SDS011;31824;49.648;8.640;2024-02-21T10:00:51;5.25;;;1.17;;
46086;SDS011;31824;49.648;8.640;2024-02-21T10:03:53;8.40;;;1.70;;
46086;SDS011;31824;49.648;8.640;2024-02-21T10:06:59;8.80;;;1.55;;
46086;SDS011;31824;49.648;8.640;2024-02-21T10:10:01;14.15;;;2.20;;
46086;SDS011;31824;49.648;8.640;2024-02-21T10:13:04;7.43;;;1.45;;
46086;SDS011;31824;49.648;8.640;2024-02-21T10:16:07;5.28;;;1.70;;
46086;SDS011;31824;49.648;8.640;2024-02-21T10:19:15;7.70;;;1.92;;
46086;SDS011;31824;49.648;8.640;2024-02-21T10:22:19;4.82;;;1.67;;
46086;SDS011;31824;49.648;8.640;2024-02-21T10:25:27;10.18;;;1.67;;
46086;SDS011;31824;49.648;8.640;2024-02-21T10:28:29;4.47;;;1.02;;
46086;SDS011;31824;49.648;8.640;2024-02-21T10:31:32;5.35;;;1.52;;
46086;SDS011;31824;49.648;8.640;2024-02-21T10:34:35;7.72;;;1.63;;
46086;SDS011;31824;49.648;8.640;2024-02-21T10:37:37;2.70;;;1.00;;
46086;SDS011;31824;49.648;8.640;2024-02-21T10:40:39;4.63;;;1.20;;
46086;SDS011;31824;49.648;8.640;2024-02-21T10:43:41;4.78;;;1.25;;
46086;SDS011;31824;49.648;8.640;2024-02-21T10:46:49;10.27;;;2.30;;
46086;SDS011;31824;49.648;8.640;2024-02-21T10:49:57;5.43;;;1.38;;
46086;SDS011;31824;49.648;8.640;2024-02-21T10:53:05;5.80;;;1.60;;
46086;SDS011;31824;49.648;8.640;2024-02-21T10:56:19;6.85;;;1.77;;
46086;SDS011;31824;49.648;8.640;2024-02-21T10:59:25;5.55;;;1.83;;
46086;SDS011;31824;49.648;8.640;2024-02-21T11:02:32;2.58;;;1.10;;
46086;SDS011;31824;49.648;8.640;2024-02-21T11:05:35;5.63;;;1.27;;
46086;SDS011;31824;49.648;8.640;2024-02-21T11:08:41;5.45;;;1.63;;
46086;SDS011;31824;49.648;8.640;2024-02-21T11:14:46;6.05;;;1.48;;
46086;SDS011;31824;49.648;8.640;2024-02-21T11:17:55;5.28;;;0.95;;
46086;SDS011;31824;49.648;8.640;2024-02-21T11:21:02;1.58;;;0.55;;
46086;SDS011;31824;49.648;8.640;2024-02-21T11:24:06;4.85;;;1.30;;
46086;SDS011;31824;49.648;8.640;2024-02-21T11:27:09;7.95;;;1.23;;
46086;SDS011;31824;49.648;8.640;2024-02-21T11:30:13;4.30;;;1.00;;
46086;SDS011;31824;49.648;8.640;2024-02-21T11:33:17;4.18;;;1.30;;
46086;SDS011;31824;49.648;8.640;2024-02-21T11:36:24;2.97;;;0.88;;
46086;SDS011;31824;49.648;8.640;2024-02-21T11:39:26;6.65;;;1.42;;
46086;SDS011;31824;49.648;8.640;2024-02-21T11:42:28;9.32;;;1.35;;
46086;SDS011;31824;49.648;8.640;2024-02-21T11:45:33;7.03;;;1.13;;
46086;SDS011;31824;49.648;8.640;2024-02-21T11:48:36;6.28;;;1.70;;
46086;SDS011;31824;49.648;8.640;2024-02-21T11:51:41;6.10;;;1.10;;
46086;SDS011;31824;49.648;8.640;2024-02-21T11:54:43;2.95;;;0.93;;
46086;SDS011;31824;49.648;8.640;2024-02-21T11:57:45;3.45;;;0.90;;
46086;SDS011;31824;49.648;8.640;2024-02-21T12:00:49;2.72;;;1.00;;
46086;SDS011;31824;49.648;8.640;2024-02-21T12:03:52;2.53;;;0.73;;
46086;SDS011;31824;49.648;8.640;2024-02-21T12:06:54;8.30;;;1.65;;
46086;SDS011;31824;49.648;8.640;2024-02-21T12:09:58;3.03;;;0.80;;
46086;SDS011;31824;49.648;8.640;2024-02-21T12:13:07;2.85;;;1.10;;
46086;SDS011;31824;49.648;8.640;2024-02-21T12:16:09;5.15;;;1.10;;
46086;SDS011;31824;49.648;8.640;2024-02-21T12:19:12;5.97;;;1.40;;
46086;SDS011;31824;49.648;8.640;2024-02-21T12:22:16;4.28;;;1.08;;
46086;SDS011;31824;49.648;8.640;2024-02-21T12:25:20;4.22;;;1.23;;
46086;SDS011;31824;49.648;8.640;2024-02-21T12:28:28;5.05;;;0.90;;
46086;SDS011;31824;49.648;8.640;2024-02-21T12:31:30;2.25;;;0.80;;
46086;SDS011;31824;49.648;8.640;2024-02-21T12:34:33;4.32;;;1.15;;
46086;SDS011;31824;49.648;8.640;2024-02-21T12:37:53;2.42;;;0.85;;
46086;SDS011;31824;49.648;8.640;2024-02-21T12:40:55;4.00;;;1.42;;
46086;SDS011;31824;49.648;8.640;2024-02-21T12:43:58;8.95;;;1.58;;
46086;SDS011;31824;49.648;8.640;2024-02-21T12:47:00;5.05;;;1.83;;
46086;SDS011;31824;49.648;8.640;2024-02-21T12:50:04;4.10;;;1.40;;
46086;SDS011;31824;49.648;8.640;2024-02-21T12:53:09;2.35;;;0.93;;
46086;SDS011;31824;49.648;8.640;2024-02-21T12:56:23;5.68;;;1.15;;
46086;SDS011;31824;49.648;8.640;2024-02-21T12:59:25;3.75;;;1.10;;
46086;SDS011;31824;49.648;8.640;2024-02-21T13:02:29;4.80;;;1.75;;
46086;SDS011;31824;49.648;8.640;2024-02-21T13:05:32;4.25;;;1.25;;
46086;SDS011;31824;49.648;8.640;2024-02-21T13:08:34;4.00;;;0.80;;
46086;SDS011;31824;49.648;8.640;2024-02-21T13:11:39;6.40;;;1.27;;
46086;SDS011;31824;49.648;8.640;2024-02-21T13:14:42;1.65;;;0.52;;
46086;SDS011;31824;49.648;8.640;2024-02-21T13:17:45;4.00;;;1.23;;
46086;SDS011;31824;49.648;8.640;2024-02-21T13:20:49;7.80;;;1.40;;
46086;SDS011;31824;49.648;8.640;2024-02-21T13:23:51;5.65;;;0.90;;
46086;SDS011;31824;49.648;8.640;2024-02-21T13:26:53;4.75;;;1.20;;
46086;SDS011;31824;49.648;8.640;2024-02-21T13:29:54;5.28;;;1.23;;
46086;SDS011;31824;49.648;8.640;2024-02-21T13:32:56;4.88;;;1.30;;
46086;SDS011;31824;49.648;8.640;2024-02-21T13:36:00;3.95;;;0.90;;
46086;SDS011;31824;49.648;8.640;2024-02-21T13:39:03;3.95;;;0.95;;
46086;SDS011;31824;49.648;8.640;2024-02-21T13:42:06;8.88;;;1.25;;
46086;SDS011;31824;49.648;8.640;2024-02-21T13:45:09;5.25;;;1.15;;
46086;SDS011;31824;49.648;8.640;2024-02-21T13:48:11;3.35;;;1.23;;
46086;SDS011;31824;49.648;8.640;2024-02-21T13:51:20;2.50;;;0.70;;
46086;SDS011;31824;49.648;8.640;2024-02-21T13:54:22;3.60;;;1.17;;
46086;SDS011;31824;49.648;8.640;2024-02-21T13:57:24;2.05;;;0.60;;
46086;SDS011;31824;49.648;8.640;2024-02-21T14:00:26;1.50;;;0.32;;
46086;SDS011;31824;49.648;8.640;2024-02-21T14:03:28;4.10;;;1.00;;
46086;SDS011;31824;49.648;8.640;2024-02-21T14:06:32;3.22;;;0.80;;
46086;SDS011;31824;49.648;8.640;2024-02-21T14:09:34;4.97;;;1.20;;
46086;SDS011;31824;49.648;8.640;2024-02-21T14:12:36;3.55;;;1.20;;
46086;SDS011;31824;49.648;8.640;2024-02-21T14:15:39;5.93;;;1.02;;
46086;SDS011;31824;49.648;8.640;2024-02-21T14:18:45;3.03;;;0.98;;
46086;SDS011;31824;49.648;8.640;2024-02-21T14:21:48;5.55;;;1.00;;
46086;SDS011;31824;49.648;8.640;2024-02-21T14:24:50;6.15;;;1.17;;
46086;SDS011;31824;49.648;8.640;2024-02-21T14:27:52;7.75;;;1.15;;
46086;SDS011;31824;49.648;8.640;2024-02-21T14:30:54;4.80;;;1.50;;
46086;SDS011;31824;49.648;8.640;2024-02-21T14:33:58;3.33;;;1.10;;
46086;SDS011;31824;49.648;8.640;2024-02-21T14:37:06;4.97;;;0.95;;
46086;SDS011;31824;49.648;8.640;2024-02-21T14:40:08;3.00;;;0.90;;
46086;SDS011;31824;49.648;8.640;2024-02-21T14:43:10;9.27;;;1.23;;
46086;SDS011;31824;49.648;8.640;2024-02-21T14:46:12;2.95;;;1.10;;
46086;SDS011;31824;49.648;8.640;2024-02-21T14:49:14;4.75;;;0.85;;
46086;SDS011;31824;49.648;8.640;2024-02-21T14:52:22;4.25;;;0.90;;
46086;SDS011;31824;49.648;8.640;2024-02-21T14:55:26;6.38;;;1.10;;
46086;SDS011;31824;49.648;8.640;2024-02-21T14:58:28;8.63;;;0.85;;
46086;SDS011;31824;49.648;8.640;2024-02-21T15:01:29;6.13;;;0.95;;
46086;SDS011;31824;49.648;8.640;2024-02-21T15:04:33;2.47;;;0.77;;
46086;SDS011;31824;49.648;8.640;2024-02-21T15:07:36;3.35;;;1.00;;
46086;SDS011;31824;49.648;8.640;2024-02-21T15:10:38;3.75;;;1.00;;
46086;SDS011;31824;49.648;8.640;2024-02-21T15:13:40;4.10;;;1.10;;
46086;SDS011;31824;49.648;8.640;2024-02-21T15:16:44;3.03;;;0.93;;
46086;SDS011;31824;49.648;8.640;2024-02-21T15:19:46;4.85;;;1.20;;
46086;SDS011;31824;49.648;8.640;2024-02-21T15:22:51;5.40;;;1.20;;
46086;SDS011;31824;49.648;8.640;2024-02-21T15:25:53;1.67;;;0.52;;
46086;SDS011;31824;49.648;8.640;2024-02-21T15:28:55;4.55;;;0.98;;
46086;SDS011;31824;49.648;8.640;2024-02-21T15:31:59;7.15;;;1.27;;
46086;SDS011;31824;49.648;8.640;2024-02-21T15:35:01;3.90;;;1.25;;
46086;SDS011;31824;49.648;8.640;2024-02-21T15:38:05;6.43;;;1.00;;
46086;SDS011;31824;49.648;8.640;2024-02-21T15:41:07;5.63;;;1.25;;
46086;SDS011;31824;49.648;8.640;2024-02-21T15:44:12;5.03;;;0.85;;
46086;SDS011;31824;49.648;8.640;2024-02-21T15:47:14;9.48;;;0.90;;
46086;SDS011;31824;49.648;8.640;2024-02-21T15:50:19;2.22;;;0.88;;
46086;SDS011;31824;49.648;8.640;2024-02-21T15:53:22;4.32;;;1.10;;
46086;SDS011;31824;49.648;8.640;2024-02-21T15:56:24;6.80;;;1.35;;
46086;SDS011;31824;49.648;8.640;2024-02-21T15:59:26;4.35;;;1.20;;
46086;SDS011;31824;49.648;8.640;2024-02-21T16:02:28;5.13;;;1.33;;
46086;SDS011;31824;49.648;8.640;2024-02-21T16:05:30;3.25;;;0.80;;
46086;SDS011;31824;49.648;8.640;2024-02-21T16:08:33;2.83;;;0.90;;
46086;SDS011;31824;49.648;8.640;2024-02-21T16:11:38;2.35;;;1.00;;
46086;SDS011;31824;49.648;8.640;2024-02-21T16:14:39;1.98;;;0.55;;
46086;SDS011;31824;49.648;8.640;2024-02-21T16:17:41;3.10;;;0.82;;
46086;SDS011;31824;49.648;8.640;2024-02-21T16:20:43;9.05;;;1.08;;
46086;SDS011;31824;49.648;8.640;2024-02-21T16:23:48;5.13;;;0.90;;
46086;SDS011;31824;49.648;8.640;2024-02-21T16:26:50;3.90;;;0.95;;
46086;SDS011;31824;49.648;8.640;2024-02-21T16:29:52;6.57;;;1.30;;
46086;SDS011;31824;49.648;8.640;2024-02-21T16:32:53;3.72;;;1.00;;
46086;SDS011;31824;49.648;8.640;2024-02-21T16:35:55;1.90;;;0.52;;
46086;SDS011;31824;49.648;8.640;2024-02-21T16:38:59;5.95;;;0.60;;
46086;SDS011;31824;49.648;8.640;2024-02-21T16:42:01;2.67;;;0.82;;
46086;SDS011;31824;49.648;8.640;2024-02-21T16:45:06;2.22;;;0.50;;
46086;SDS011;31824;49.648;8.640;2024-02-21T16:48:09;2.72;;;1.08;;
46086;SDS011;31824;49.648;8.640;2024-02-21T16:51:12;3.80;;;1.13;;
46086;SDS011;31824;49.648;8.640;2024-02-21T16:54:16;3.35;;;0.90;;
46086;SDS011;31824;49.648;8.640;2024-02-21T16:57:22;1.95;;;0.73;;
46086;SDS011;31824;49.648;8.640;2024-02-21T17:00:24;4.57;;;0.88;;
46086;SDS011;31824;49.648;8.640;2024-02-21T17:03:26;3.00;;;0.90;;
46086;SDS011;31824;49.648;8.640;2024-02-21T17:06:28;5.88;;;1.08;;
46086;SDS011;31824;49.648;8.640;2024-02-21T17:09:31;3.75;;;0.80;;
46086;SDS011;31824;49.648;8.640;2024-02-21T17:12:34;4.78;;;0.98;;
46086;SDS011;31824;49.648;8.640;2024-02-21T17:15:38;5.50;;;1.27;;
46086;SDS011;31824;49.648;8.640;2024-02-21T17:18:39;3.15;;;1.05;;
46086;SDS011;31824;49.648;8.640;2024-02-21T17:21:42;2.75;;;0.52;;
46086;SDS011;31824;49.648;8.640;2024-02-21T17:24:45;8.15;;;1.58;;
46086;SDS011;31824;49.648;8.640;2024-02-21T17:27:47;3.53;;;1.02;;
46086;SDS011;31824;49.648;8.640;2024-02-21T17:30:51;2.60;;;1.08;;
46086;SDS011;31824;49.648;8.640;2024-02-21T17:33:53;3.22;;;1.10;;
46086;SDS011;31824;49.648;8.640;2024-02-21T17:36:55;6.22;;;1.30;;
46086;SDS011;31824;49.648;8.640;2024-02-21T17:39:58;7.95;;;1.77;;
46086;SDS011;31824;49.648;8.640;2024-02-21T17:43:00;3.50;;;1.02;;
46086;SDS011;31824;49.648;8.640;2024-02-21T17:46:02;4.05;;;1.38;;
46086;SDS011;31824;49.648;8.640;2024-02-21T17:49:05;5.68;;;1.70;;
46086;SDS011;31824;49.648;8.640;2024-02-21T17:52:07;2.22;;;0.88;;
46086;SDS011;31824;49.648;8.640;2024-02-21T17:55:10;5.00;;;1.42;;
46086;SDS011;31824;49.648;8.640;2024-02-21T17:58:14;4.72;;;1.30;;
46086;SDS011;31824;49.648;8.640;2024-02-21T18:01:16;4.82;;;1.08;;
46086;SDS011;31824;49.648;8.640;2024-02-21T18:04:38;7.38;;;1.77;;
46086;SDS011;31824;49.648;8.640;2024-02-21T18:07:59;5.90;;;1.73;;
46086;SDS011;31824;49.648;8.640;2024-02-21T18:11:21;4.75;;;1.23;;
46086;SDS011;31824;49.648;8.640;2024-02-21T18:17:57;2.85;;;1.33;;
46086;SDS011;31824;49.648;8.640;2024-02-21T18:20:59;5.68;;;1.30;;
46086;SDS011;31824;49.648;8.640;2024-02-21T18:24:01;3.72;;;0.80;;
46086;SDS011;31824;49.648;8.640;2024-02-21T18:27:03;4.32;;;0.98;;
46086;SDS011;31824;49.648;8.640;2024-02-21T18:30:05;5.70;;;1.23;;